Time,TemperatureF,DewpointF,PressureIn,WindDirection,WindDirectionDegrees,WindSpeedMPH,WindSpeedGustMPH,Humidity,HourlyPrecipIn,Conditions,Clouds,dailyrainin,SoftwareType,DateUTC
2013-01-13 00:02:00,26.4,22.7,30.03,North,0,0.0,0.0,86,0.00,,,0.00,WUHU21623XXSP,2013-01-13 06:02:00,
2013-01-13 00:07:00,26.4,22.7,30.01,North,0,0.0,0.0,86,0.00,,,0.00,WUHU21623XXSP,2013-01-13 06:07:00,
2013-01-13 00:12:00,26.4,22.7,30.00,North,0,0.0,0.0,86,0.00,,,0.00,WUHU21623XXSP,2013-01-13 06:12:00,
2013-01-13 00:17:00,26.2,22.6,30.00,North,0,0.0,0.0,86,0.00,,,0.00,WUHU21623XXSP,2013-01-13 06:17:00,
2013-01-13 00:22:00,26.2,22.6,30.00,North,0,0.0,0.0,86,0.00,,,0.00,WUHU21623XXSP,2013-01-13 06:22:00,
2013-01-13 00:27:00,26.2,22.6,30.00,North,0,0.0,0.0,86,0.00,,,0.00,WUHU21623XXSP,2013-01-13 06:27:00,
2013-01-13 00:32:00,25.9,22.4,30.00,North,0,0.0,0.0,86,0.00,,,0.00,WUHU21623XXSP,2013-01-13 06:32:00,
2013-01-13 00:37:00,25.9,22.2,30.00,North,0,0.0,0.0,86,0.00,,,0.00,WUHU21623XXSP,2013-01-13 06:37:00,
2013-01-13 00:42:00,25.5,21.9,30.00,North,0,0.0,0.0,86,0.00,,,0.00,WUHU21623XXSP,2013-01-13 06:42:00,
2013-01-13 00:47:00,25.5,21.9,30.00,North,0,0.0,0.0,86,0.00,,,0.00,WUHU21623XXSP,2013-01-13 06:47:00,
2013-01-13 00:52:00,25.3,21.9,30.00,North,0,0.0,0.0,86,0.00,,,0.00,WUHU21623XXSP,2013-01-13 06:52:00,
2013-01-13 00:57:00,25.2,21.3,30.00,North,0,0.0,0.0,85,0.00,,,0.00,WUHU21623XXSP,2013-01-13 06:57:00,
2013-01-13 01:02:00,25.0,21.1,30.00,North,0,0.0,0.0,85,0.00,,,0.00,WUHU21623XXSP,2013-01-13 07:02:00,
2013-01-13 01:07:00,25.0,21.1,30.00,North,0,0.0,0.0,85,0.00,,,0.00,WUHU21623XXSP,2013-01-13 07:07:00,
2013-01-13 01:12:00,25.0,21.1,30.00,North,0,0.0,0.0,85,0.00,,,0.00,WUHU21623XXSP,2013-01-13 07:12:00,
2013-01-13 01:17:00,24.6,20.8,30.00,North,0,0.0,0.0,85,0.00,,,0.00,WUHU21623XXSP,2013-01-13 07:17:00,
2013-01-13 01:22:00,24.6,20.8,30.00,North,0,0.0,0.0,85,0.00,,,0.00,WUHU21623XXSP,2013-01-13 07:22:00,
2013-01-13 01:27:00,24.6,20.8,30.00,North,0,0.0,0.0,85,0.00,,,0.00,WUHU21623XXSP,2013-01-13 07:27:00,
2013-01-13 01:33:00,24.4,20.8,30.01,North,0,0.0,0.0,85,0.00,,,0.00,WUHU21623XXSP,2013-01-13 07:33:00,
2013-01-13 01:38:00,24.4,20.6,30.01,North,0,0.0,0.0,85,0.00,,,0.00,WUHU21623XXSP,2013-01-13 07:38:00,
2013-01-13 01:43:00,24.4,20.6,30.03,North,0,0.0,0.0,85,0.00,,,0.00,WUHU21623XXSP,2013-01-13 07:43:00,
2013-01-13 01:48:00,24.4,20.6,30.03,North,0,0.0,0.0,85,0.00,,,0.00,WUHU21623XXSP,2013-01-13 07:48:00,
2013-01-13 01:53:00,24.3,20.4,30.03,North,0,0.0,0.0,85,0.00,,,0.00,WUHU21623XXSP,2013-01-13 07:53:00,
2013-01-13 01:58:00,24.1,20.2,30.04,North,0,0.0,0.0,85,0.00,,,0.00,WUHU21623XXSP,2013-01-13 07:58:00,
2013-01-13 02:03:00,24.1,20.2,30.04,North,0,0.0,0.0,85,0.00,,,0.00,WUHU21623XXSP,2013-01-13 08:03:00,
2013-01-13 02:08:00,24.1,20.2,30.05,North,0,0.0,0.0,85,0.00,,,0.00,WUHU21623XXSP,2013-01-13 08:08:00,
2013-01-13 02:13:00,24.1,20.2,30.04,North,0,0.0,0.0,85,0.00,,,0.00,WUHU21623XXSP,2013-01-13 08:13:00,
2013-01-13 02:18:00,24.1,20.2,30.05,North,0,0.0,0.0,85,0.00,,,0.00,WUHU21623XXSP,2013-01-13 08:18:00,
2013-01-13 02:23:00,24.1,20.2,30.06,North,0,0.0,0.0,85,0.00,,,0.00,WUHU21623XXSP,2013-01-13 08:23:00,
2013-01-13 02:28:00,24.1,20.2,30.05,North,0,0.0,0.0,85,0.00,,,0.00,WUHU21623XXSP,2013-01-13 08:28:00,
2013-01-13 02:33:00,23.9,19.8,30.07,North,0,0.0,0.0,84,0.00,,,0.00,WUHU21623XXSP,2013-01-13 08:33:00,
2013-01-13 02:38:00,23.9,19.8,30.08,North,0,0.0,0.0,84,0.00,,,0.00,WUHU21623XXSP,2013-01-13 08:38:00,
2013-01-13 02:43:00,23.7,19.6,30.07,North,0,0.0,0.0,84,0.00,,,0.00,WUHU21623XXSP,2013-01-13 08:43:00,
2013-01-13 02:48:00,23.7,19.6,30.07,North,0,0.0,0.0,84,0.00,,,0.00,WUHU21623XXSP,2013-01-13 08:48:00,
2013-01-13 02:53:00,23.5,19.4,30.06,North,0,0.0,0.0,84,0.00,,,0.00,WUHU21623XXSP,2013-01-13 08:53:00,
2013-01-13 02:58:00,23.5,19.4,30.06,North,0,0.0,0.0,84,0.00,,,0.00,WUHU21623XXSP,2013-01-13 08:58:00,
2013-01-13 03:03:00,23.5,19.4,30.07,North,0,0.0,0.0,84,0.00,,,0.00,WUHU21623XXSP,2013-01-13 09:03:00,
2013-01-13 03:08:00,23.4,18.9,30.04,North,0,0.0,0.0,83,0.00,,,0.00,WUHU21623XXSP,2013-01-13 09:08:00,
2013-01-13 03:13:00,23.2,18.8,30.05,North,0,0.0,0.0,83,0.00,,,0.00,WUHU21623XXSP,2013-01-13 09:13:00,
2013-01-13 03:18:00,23.2,18.8,30.06,North,0,0.0,0.0,83,0.00,,,0.00,WUHU21623XXSP,2013-01-13 09:18:00,
2013-01-13 03:23:00,23.2,18.8,30.05,North,0,0.0,0.0,83,0.00,,,0.00,WUHU21623XXSP,2013-01-13 09:23:00,
2013-01-13 03:28:00,23.2,18.8,30.05,North,0,0.0,0.0,83,0.00,,,0.00,WUHU21623XXSP,2013-01-13 09:28:00,
2013-01-13 03:33:00,23.4,18.9,30.06,North,0,0.0,0.0,83,0.00,,,0.00,WUHU21623XXSP,2013-01-13 09:33:00,
2013-01-13 03:38:00,23.4,18.9,30.06,North,0,0.0,0.0,83,0.00,,,0.00,WUHU21623XXSP,2013-01-13 09:38:00,
2013-01-13 03:43:00,23.2,18.8,30.06,North,0,0.0,0.0,83,0.00,,,0.00,WUHU21623XXSP,2013-01-13 09:43:00,
2013-01-13 03:48:00,23.2,18.8,30.06,North,0,0.0,0.0,83,0.00,,,0.00,WUHU21623XXSP,2013-01-13 09:48:00,
2013-01-13 03:53:00,23.2,18.8,30.07,North,0,0.0,0.0,83,0.00,,,0.00,WUHU21623XXSP,2013-01-13 09:53:00,
2013-01-13 03:58:00,23.2,18.8,30.08,North,0,0.0,0.0,83,0.00,,,0.00,WUHU21623XXSP,2013-01-13 09:58:00,
2013-01-13 04:03:00,23.2,18.8,30.08,North,0,0.0,0.0,83,0.00,,,0.00,WUHU21623XXSP,2013-01-13 10:03:00,
2013-01-13 04:08:00,23.2,18.8,30.09,North,0,0.0,0.0,83,0.00,,,0.00,WUHU21623XXSP,2013-01-13 10:08:00,
2013-01-13 04:13:00,23.2,18.8,30.09,North,0,0.0,0.0,83,0.00,,,0.00,WUHU21623XXSP,2013-01-13 10:13:00,
2013-01-13 04:18:00,23.2,18.5,30.08,North,0,0.0,0.0,82,0.00,,,0.00,WUHU21623XXSP,2013-01-13 10:18:00,
2013-01-13 04:23:00,23.2,18.5,30.08,North,0,0.0,0.0,82,0.00,,,0.00,WUHU21623XXSP,2013-01-13 10:23:00,
2013-01-13 04:28:00,23.2,18.5,30.08,North,0,0.0,0.0,82,0.00,,,0.00,WUHU21623XXSP,2013-01-13 10:28:00,
2013-01-13 04:33:00,23.2,18.5,30.08,North,0,0.0,0.0,82,0.00,,,0.00,WUHU21623XXSP,2013-01-13 10:33:00,
2013-01-13 04:38:00,23.2,18.5,30.08,North,0,0.0,0.0,82,0.00,,,0.00,WUHU21623XXSP,2013-01-13 10:38:00,
2013-01-13 04:43:00,23.0,18.3,30.06,North,0,0.0,0.0,82,0.00,,,0.00,WUHU21623XXSP,2013-01-13 10:43:00,
2013-01-13 04:48:00,23.0,18.3,30.05,North,0,0.0,0.0,82,0.00,,,0.00,WUHU21623XXSP,2013-01-13 10:48:00,
2013-01-13 04:53:00,22.8,18.1,30.07,North,0,0.0,0.0,82,0.00,,,0.00,WUHU21623XXSP,2013-01-13 10:53:00,
2013-01-13 04:58:00,22.8,18.1,30.07,North,0,0.0,0.0,82,0.00,,,0.00,WUHU21623XXSP,2013-01-13 10:58:00,
2013-01-13 05:03:00,22.8,18.1,30.08,North,0,0.0,0.0,82,0.00,,,0.00,WUHU21623XXSP,2013-01-13 11:03:00,
2013-01-13 05:08:00,22.8,17.9,30.07,North,0,0.0,0.0,81,0.00,,,0.00,WUHU21623XXSP,2013-01-13 11:08:00,
2013-01-13 05:13:00,22.8,17.9,30.08,North,0,0.0,0.0,81,0.00,,,0.00,WUHU21623XXSP,2013-01-13 11:13:00,
2013-01-13 05:18:00,22.8,17.9,30.06,North,0,0.0,0.0,81,0.00,,,0.00,WUHU21623XXSP,2013-01-13 11:18:00,
2013-01-13 05:23:00,22.8,17.9,30.07,North,0,0.0,0.0,81,0.00,,,0.00,WUHU21623XXSP,2013-01-13 11:23:00,
2013-01-13 05:28:00,22.8,17.9,30.06,North,0,0.0,0.0,81,0.00,,,0.00,WUHU21623XXSP,2013-01-13 11:28:00,
2013-01-13 05:33:00,22.8,17.9,30.07,North,0,0.0,0.0,81,0.00,,,0.00,WUHU21623XXSP,2013-01-13 11:33:00,
2013-01-13 05:38:00,22.6,17.7,30.08,North,0,0.0,0.0,81,0.00,,,0.00,WUHU21623XXSP,2013-01-13 11:38:00,
2013-01-13 05:43:00,22.6,17.7,30.07,North,0,0.0,0.0,81,0.00,,,0.00,WUHU21623XXSP,2013-01-13 11:43:00,
2013-01-13 05:48:00,22.5,17.5,30.09,North,0,0.0,0.0,81,0.00,,,0.00,WUHU21623XXSP,2013-01-13 11:48:00,
2013-01-13 05:53:00,22.6,17.7,30.10,North,0,0.0,0.0,81,0.00,,,0.00,WUHU21623XXSP,2013-01-13 11:53:00,
2013-01-13 05:58:00,22.5,17.5,30.09,North,0,0.0,0.0,81,0.00,,,0.00,WUHU21623XXSP,2013-01-13 11:58:00,
2013-01-13 06:03:00,22.6,17.7,30.07,North,0,0.0,0.0,81,0.00,,,0.00,WUHU21623XXSP,2013-01-13 12:03:00,
2013-01-13 06:08:00,22.5,17.5,30.09,North,0,0.0,0.0,81,0.00,,,0.00,WUHU21623XXSP,2013-01-13 12:08:00,
2013-01-13 06:13:00,22.3,17.5,30.09,North,0,0.0,0.0,81,0.00,,,0.00,WUHU21623XXSP,2013-01-13 12:13:00,
2013-01-13 06:18:00,22.3,17.3,30.11,North,0,0.0,0.0,81,0.00,,,0.00,WUHU21623XXSP,2013-01-13 12:18:00,
2013-01-13 06:23:00,22.3,17.3,30.10,North,0,0.0,0.0,81,0.00,,,0.00,WUHU21623XXSP,2013-01-13 12:23:00,
2013-01-13 06:28:00,22.3,17.3,30.10,North,0,0.0,0.0,81,0.00,,,0.00,WUHU21623XXSP,2013-01-13 12:28:00,
2013-01-13 06:33:00,22.1,17.1,30.10,North,0,0.0,0.0,81,0.00,,,0.00,WUHU21623XXSP,2013-01-13 12:33:00,
2013-01-13 06:38:00,21.9,17.0,30.11,North,0,0.0,0.0,81,0.00,,,0.00,WUHU21623XXSP,2013-01-13 12:38:00,
2013-01-13 06:43:00,21.9,17.0,30.10,North,0,0.0,0.0,81,0.00,,,0.00,WUHU21623XXSP,2013-01-13 12:43:00,
2013-01-13 06:48:00,21.9,17.0,30.12,North,0,0.0,0.0,81,0.00,,,0.00,WUHU21623XXSP,2013-01-13 12:48:00,
2013-01-13 06:53:00,21.9,17.0,30.12,North,0,0.0,0.0,81,0.00,,,0.00,WUHU21623XXSP,2013-01-13 12:53:00,
2013-01-13 06:58:00,21.7,16.8,30.12,North,0,0.0,0.0,81,0.00,,,0.00,WUHU21623XXSP,2013-01-13 12:58:00,
2013-01-13 07:03:00,21.7,16.8,30.13,North,0,0.0,0.0,81,0.00,,,0.00,WUHU21623XXSP,2013-01-13 13:03:00,
2013-01-13 07:08:00,21.6,16.3,30.14,North,0,0.0,0.0,80,0.00,,,0.00,WUHU21623XXSP,2013-01-13 13:08:00,
2013-01-13 07:13:00,21.4,16.2,30.13,North,0,0.0,0.0,80,0.00,,,0.00,WUHU21623XXSP,2013-01-13 13:13:00,
2013-01-13 07:18:00,21.0,15.5,30.13,North,0,0.0,0.0,79,0.00,,,0.00,WUHU21623XXSP,2013-01-13 13:18:00,
2013-01-13 07:23:00,20.8,15.3,30.15,North,0,0.0,0.0,79,0.00,,,0.00,WUHU21623XXSP,2013-01-13 13:23:00,
2013-01-13 07:28:00,20.5,15.0,30.16,North,0,0.0,0.0,79,0.00,,,0.00,WUHU21623XXSP,2013-01-13 13:28:00,
2013-01-13 07:33:00,20.3,14.8,30.18,North,0,0.0,0.0,79,0.00,,,0.00,WUHU21623XXSP,2013-01-13 13:33:00,
2013-01-13 07:38:00,20.3,14.8,30.17,North,0,0.0,0.0,79,0.00,,,0.00,WUHU21623XXSP,2013-01-13 13:38:00,
2013-01-13 07:43:00,20.1,14.6,30.16,North,0,0.0,0.0,79,0.00,,,0.00,WUHU21623XXSP,2013-01-13 13:43:00,
2013-01-13 07:48:00,20.1,14.6,30.15,North,0,0.0,0.0,79,0.00,,,0.00,WUHU21623XXSP,2013-01-13 13:48:00,
2013-01-13 07:53:00,20.1,14.6,30.16,North,0,0.0,0.0,79,0.00,,,0.00,WUHU21623XXSP,2013-01-13 13:53:00,
2013-01-13 07:58:00,20.1,14.6,30.15,North,0,0.0,0.0,79,0.00,,,0.00,WUHU21623XXSP,2013-01-13 13:58:00,
2013-01-13 08:03:00,20.3,14.8,30.13,North,0,0.0,0.0,79,0.00,,,0.00,WUHU21623XXSP,2013-01-13 14:03:00,
2013-01-13 08:08:00,20.3,14.8,30.17,North,0,0.0,0.0,79,0.00,,,0.00,WUHU21623XXSP,2013-01-13 14:08:00,
2013-01-13 08:13:00,20.5,15.0,30.16,North,0,0.0,0.0,79,0.00,,,0.00,WUHU21623XXSP,2013-01-13 14:13:00,
2013-01-13 08:18:00,20.1,14.3,30.15,North,0,0.0,0.0,78,0.00,,,0.00,WUHU21623XXSP,2013-01-13 14:18:00,
2013-01-13 08:23:00,20.1,14.3,30.15,North,0,0.0,0.0,78,0.00,,,0.00,WUHU21623XXSP,2013-01-13 14:23:00,
2013-01-13 08:28:00,20.1,14.3,30.15,North,0,0.0,0.0,78,0.00,,,0.00,WUHU21623XXSP,2013-01-13 14:28:00,
2013-01-13 08:33:00,19.9,14.1,30.15,North,0,0.0,0.0,78,0.00,,,0.00,WUHU21623XXSP,2013-01-13 14:33:00,
2013-01-13 08:38:00,19.9,13.8,30.15,North,0,0.0,0.0,77,0.00,,,0.00,WUHU21623XXSP,2013-01-13 14:38:00,
2013-01-13 08:43:00,20.1,13.8,30.15,North,0,0.0,0.0,77,0.00,,,0.00,WUHU21623XXSP,2013-01-13 14:43:00,
2013-01-13 08:48:00,20.3,14.2,30.16,North,0,0.0,0.0,77,0.00,,,0.00,WUHU21623XXSP,2013-01-13 14:48:00,
2013-01-13 08:53:00,20.5,14.3,30.16,North,0,0.0,0.0,77,0.00,,,0.00,WUHU21623XXSP,2013-01-13 14:53:00,
2013-01-13 08:58:00,20.7,14.5,30.16,North,0,0.0,0.0,77,0.00,,,0.00,WUHU21623XXSP,2013-01-13 14:58:00,
2013-01-13 09:03:00,20.8,14.7,30.16,North,0,0.0,0.0,77,0.00,,,0.00,WUHU21623XXSP,2013-01-13 15:03:00,
2013-01-13 09:08:00,20.5,14.4,30.17,North,0,0.0,0.0,76,0.00,,,0.00,WUHU21623XXSP,2013-01-13 15:08:00,
2013-01-13 09:13:00,20.8,14.4,30.16,North,0,0.0,0.0,76,0.00,,,0.00,WUHU21623XXSP,2013-01-13 15:13:00,
2013-01-13 09:18:00,20.8,14.4,30.16,North,0,0.0,0.0,76,0.00,,,0.00,WUHU21623XXSP,2013-01-13 15:18:00,
2013-01-13 09:23:00,21.0,14.6,30.16,North,0,0.0,0.0,77,0.00,,,0.00,WUHU21623XXSP,2013-01-13 15:23:00,
2013-01-13 09:28:00,21.0,14.9,30.15,North,0,0.0,0.0,77,0.00,,,0.00,WUHU21623XXSP,2013-01-13 15:28:00,
2013-01-13 09:33:00,21.4,14.9,30.15,North,0,0.0,0.0,76,0.00,,,0.00,WUHU21623XXSP,2013-01-13 15:33:00,
2013-01-13 09:38:00,21.4,14.9,30.15,North,0,0.0,0.0,76,0.00,,,0.00,WUHU21623XXSP,2013-01-13 15:38:00,
2013-01-13 09:43:00,21.4,14.9,30.15,North,0,0.0,0.0,76,0.00,,,0.00,WUHU21623XXSP,2013-01-13 15:43:00,
2013-01-13 09:48:00,21.4,14.9,30.15,North,0,0.0,0.0,76,0.00,,,0.00,WUHU21623XXSP,2013-01-13 15:48:00,
2013-01-13 09:53:00,21.4,14.9,30.15,North,0,0.0,0.0,76,0.00,,,0.00,WUHU21623XXSP,2013-01-13 15:53:00,
2013-01-13 09:58:00,21.4,14.9,30.16,North,0,0.0,0.0,76,0.00,,,0.00,WUHU21623XXSP,2013-01-13 15:58:00,
2013-01-13 10:03:00,21.4,14.6,30.18,North,0,0.0,0.0,75,0.00,,,0.00,WUHU21623XXSP,2013-01-13 16:03:00,
2013-01-13 10:08:00,21.4,14.9,30.18,North,0,0.0,0.0,76,0.00,,,0.00,WUHU21623XXSP,2013-01-13 16:08:00,
2013-01-13 10:13:00,21.4,14.6,30.17,North,0,0.0,0.0,75,0.00,,,0.00,WUHU21623XXSP,2013-01-13 16:13:00,
2013-01-13 10:18:00,21.4,14.6,30.18,North,0,0.0,0.0,75,0.00,,,0.00,WUHU21623XXSP,2013-01-13 16:18:00,
2013-01-13 10:23:00,21.4,14.6,30.19,North,0,0.0,0.0,75,0.00,,,0.00,WUHU21623XXSP,2013-01-13 16:23:00,
2013-01-13 10:28:00,21.4,14.6,30.19,North,0,0.0,0.0,75,0.00,,,0.00,WUHU21623XXSP,2013-01-13 16:28:00,
2013-01-13 10:33:00,21.6,14.8,30.17,North,0,0.0,0.0,75,0.00,,,0.00,WUHU21623XXSP,2013-01-13 16:33:00,
2013-01-13 10:38:00,21.7,15.0,30.19,North,0,0.0,0.0,75,0.00,,,0.00,WUHU21623XXSP,2013-01-13 16:38:00,
2013-01-13 10:43:00,21.9,15.2,30.19,North,0,0.0,0.0,75,0.00,,,0.00,WUHU21623XXSP,2013-01-13 16:43:00,
2013-01-13 10:48:00,22.1,15.3,30.19,North,0,0.0,0.0,75,0.00,,,0.00,WUHU21623XXSP,2013-01-13 16:48:00,
2013-01-13 10:53:00,22.3,15.3,30.19,North,0,0.0,0.0,74,0.00,,,0.00,WUHU21623XXSP,2013-01-13 16:53:00,
2013-01-13 10:58:00,22.6,15.4,30.20,North,0,0.0,0.0,74,0.00,,,0.00,WUHU21623XXSP,2013-01-13 16:58:00,
2013-01-13 11:03:00,23.2,16.1,30.21,North,0,0.0,0.0,74,0.00,,,0.00,WUHU21623XXSP,2013-01-13 17:03:00,
2013-01-13 11:08:00,23.0,15.9,30.22,North,0,0.0,0.0,74,0.00,,,0.00,WUHU21623XXSP,2013-01-13 17:08:00,
2013-01-13 11:13:00,22.8,15.5,30.20,North,0,0.0,0.0,73,0.00,,,0.00,WUHU21623XXSP,2013-01-13 17:13:00,
2013-01-13 11:18:00,22.6,15.3,30.18,North,0,0.0,0.0,73,0.00,,,0.00,WUHU21623XXSP,2013-01-13 17:18:00,
2013-01-13 11:24:00,22.5,15.1,30.18,North,0,0.0,0.0,72,0.00,,,0.00,WUHU21623XXSP,2013-01-13 17:24:00,
2013-01-13 11:29:00,22.5,14.8,30.18,North,0,0.0,0.0,72,0.00,,,0.00,WUHU21623XXSP,2013-01-13 17:29:00,
2013-01-13 11:34:00,23.0,15.3,30.19,North,0,0.0,0.0,72,0.00,,,0.00,WUHU21623XXSP,2013-01-13 17:34:00,
2013-01-13 11:39:00,23.2,15.2,30.18,North,0,0.0,0.0,71,0.00,,,0.00,WUHU21623XXSP,2013-01-13 17:39:00,
2013-01-13 11:44:00,22.8,14.8,30.17,North,0,0.0,0.0,71,0.00,,,0.00,WUHU21623XXSP,2013-01-13 17:44:00,
2013-01-13 11:49:00,22.1,14.0,30.16,North,0,0.0,0.0,70,0.00,,,0.00,WUHU21623XXSP,2013-01-13 17:49:00,
2013-01-13 11:54:00,21.9,13.6,30.18,North,0,0.0,0.0,70,0.00,,,0.00,WUHU21623XXSP,2013-01-13 17:54:00,
2013-01-13 11:59:00,21.4,13.1,30.17,North,0,0.0,0.0,69,0.00,,,0.00,WUHU21623XXSP,2013-01-13 17:59:00,
2013-01-13 12:04:00,21.6,13.3,30.16,North,0,0.0,0.0,70,0.00,,,0.00,WUHU21623XXSP,2013-01-13 18:04:00,
2013-01-13 12:09:00,21.7,13.5,30.16,North,0,0.0,0.0,70,0.00,,,0.00,WUHU21623XXSP,2013-01-13 18:09:00,
2013-01-13 12:14:00,21.7,13.5,30.17,North,0,0.0,0.0,70,0.00,,,0.00,WUHU21623XXSP,2013-01-13 18:14:00,
2013-01-13 12:19:00,22.1,13.8,30.17,North,0,0.0,0.0,70,0.00,,,0.00,WUHU21623XXSP,2013-01-13 18:19:00,
2013-01-13 12:24:00,22.3,13.6,30.17,North,0,0.0,0.0,69,0.00,,,0.00,WUHU21623XXSP,2013-01-13 18:24:00,
2013-01-13 12:29:00,22.3,13.6,30.16,North,0,0.0,0.0,69,0.00,,,0.00,WUHU21623XXSP,2013-01-13 18:29:00,
2013-01-13 12:34:00,22.6,14.2,30.16,North,0,0.0,0.0,70,0.00,,,0.00,WUHU21623XXSP,2013-01-13 18:34:00,
2013-01-13 12:39:00,23.2,14.9,30.16,North,0,0.0,0.0,70,0.00,,,0.00,WUHU21623XXSP,2013-01-13 18:39:00,
2013-01-13 12:44:00,23.2,14.5,30.15,North,0,0.0,0.0,69,0.00,,,0.00,WUHU21623XXSP,2013-01-13 18:44:00,
2013-01-13 12:49:00,23.2,14.5,30.15,North,0,0.0,0.0,69,0.00,,,0.00,WUHU21623XXSP,2013-01-13 18:49:00,
2013-01-13 12:54:00,23.2,14.5,30.15,North,0,0.0,0.0,69,0.00,,,0.00,WUHU21623XXSP,2013-01-13 18:54:00,
2013-01-13 12:59:00,23.4,14.7,30.16,North,0,0.0,0.0,69,0.00,,,0.00,WUHU21623XXSP,2013-01-13 18:59:00,
2013-01-13 13:04:00,23.5,14.8,30.15,North,0,0.0,0.0,69,0.00,,,0.00,WUHU21623XXSP,2013-01-13 19:04:00,
2013-01-13 13:09:00,23.7,15.0,30.15,North,0,0.0,0.0,69,0.00,,,0.00,WUHU21623XXSP,2013-01-13 19:09:00,
2013-01-13 13:14:00,23.5,15.0,30.15,North,0,0.0,0.0,69,0.00,,,0.00,WUHU21623XXSP,2013-01-13 19:14:00,
2013-01-13 13:19:00,23.5,14.8,30.15,North,0,0.0,0.0,69,0.00,,,0.00,WUHU21623XXSP,2013-01-13 19:19:00,
2013-01-13 13:24:00,23.2,14.7,30.16,North,0,0.0,0.0,69,0.00,,,0.00,WUHU21623XXSP,2013-01-13 19:24:00,
2013-01-13 13:29:00,23.2,14.5,30.16,North,0,0.0,0.0,69,0.00,,,0.00,WUHU21623XXSP,2013-01-13 19:29:00,
2013-01-13 13:34:00,23.7,15.0,30.16,North,0,0.0,0.0,69,0.00,,,0.00,WUHU21623XXSP,2013-01-13 19:34:00,
2013-01-13 13:39:00,24.1,15.3,30.16,North,0,0.0,0.0,69,0.00,,,0.00,WUHU21623XXSP,2013-01-13 19:39:00,
2013-01-13 13:44:00,24.1,15.3,30.17,North,0,0.0,0.0,69,0.00,,,0.00,WUHU21623XXSP,2013-01-13 19:44:00,
2013-01-13 13:49:00,24.4,15.7,30.16,North,0,0.0,0.0,69,0.00,,,0.00,WUHU21623XXSP,2013-01-13 19:49:00,
2013-01-13 13:54:00,24.4,15.7,30.16,North,0,0.0,0.0,69,0.00,,,0.00,WUHU21623XXSP,2013-01-13 19:54:00,
2013-01-13 13:59:00,24.6,16.2,30.17,North,0,0.0,0.0,70,0.00,,,0.00,WUHU21623XXSP,2013-01-13 19:59:00,
2013-01-13 14:04:00,24.6,16.2,30.17,North,0,0.0,0.0,70,0.00,,,0.00,WUHU21623XXSP,2013-01-13 20:04:00,
2013-01-13 14:09:00,25.3,16.9,30.17,North,0,0.0,0.0,70,0.00,,,0.00,WUHU21623XXSP,2013-01-13 20:09:00,
2013-01-13 14:14:00,25.3,16.9,30.17,North,0,0.0,0.0,70,0.00,,,0.00,WUHU21623XXSP,2013-01-13 20:14:00,
2013-01-13 14:19:00,24.6,15.5,30.18,North,0,0.0,0.0,68,0.00,,,0.00,WUHU21623XXSP,2013-01-13 20:19:00,
2013-01-13 14:24:00,24.6,15.5,30.18,North,0,0.0,0.0,68,0.00,,,0.00,WUHU21623XXSP,2013-01-13 20:24:00,
2013-01-13 14:29:00,24.4,15.3,30.18,North,0,0.0,0.0,68,0.00,,,0.00,WUHU21623XXSP,2013-01-13 20:29:00,
2013-01-13 14:34:00,24.4,15.3,30.19,North,0,0.0,0.0,68,0.00,,,0.00,WUHU21623XXSP,2013-01-13 20:34:00,
2013-01-13 14:39:00,24.4,15.0,30.19,North,0,0.0,0.0,67,0.00,,,0.00,WUHU21623XXSP,2013-01-13 20:39:00,
2013-01-13 14:44:00,24.1,14.6,30.20,North,0,0.0,0.0,67,0.00,,,0.00,WUHU21623XXSP,2013-01-13 20:44:00,
2013-01-13 14:49:00,24.1,14.6,30.20,North,0,0.0,0.0,67,0.00,,,0.00,WUHU21623XXSP,2013-01-13 20:49:00,
2013-01-13 14:54:00,24.4,15.0,30.20,North,0,0.0,0.0,67,0.00,,,0.00,WUHU21623XXSP,2013-01-13 20:54:00,
2013-01-13 14:59:00,24.1,14.6,30.21,North,0,0.0,0.0,67,0.00,,,0.00,WUHU21623XXSP,2013-01-13 20:59:00,
2013-01-13 15:04:00,24.1,14.3,30.21,North,0,0.0,0.0,66,0.00,,,0.00,WUHU21623XXSP,2013-01-13 21:04:00,
2013-01-13 15:09:00,24.1,14.3,30.22,North,0,0.0,0.0,66,0.00,,,0.00,WUHU21623XXSP,2013-01-13 21:09:00,
2013-01-13 15:14:00,23.9,14.1,30.22,North,0,0.0,0.0,66,0.00,,,0.00,WUHU21623XXSP,2013-01-13 21:14:00,
2013-01-13 15:19:00,24.1,14.3,30.22,North,0,0.0,0.0,66,0.00,,,0.00,WUHU21623XXSP,2013-01-13 21:19:00,
2013-01-13 15:24:00,23.9,14.3,30.22,North,0,0.0,0.0,66,0.00,,,0.00,WUHU21623XXSP,2013-01-13 21:24:00,
2013-01-13 15:29:00,24.1,14.3,30.22,North,0,0.0,0.0,66,0.00,,,0.00,WUHU21623XXSP,2013-01-13 21:29:00,
2013-01-13 15:34:00,24.1,14.3,30.22,North,0,0.0,0.0,66,0.00,,,0.00,WUHU21623XXSP,2013-01-13 21:34:00,
2013-01-13 15:39:00,24.1,14.3,30.22,North,0,0.0,0.0,66,0.00,,,0.00,WUHU21623XXSP,2013-01-13 21:39:00,
2013-01-13 15:44:00,23.9,14.1,30.23,North,0,0.0,0.0,66,0.00,,,0.00,WUHU21623XXSP,2013-01-13 21:44:00,
2013-01-13 15:49:00,24.1,14.1,30.23,North,0,0.0,0.0,66,0.00,,,0.00,WUHU21623XXSP,2013-01-13 21:49:00,
2013-01-13 15:54:00,24.1,14.6,30.23,North,0,0.0,0.0,67,0.00,,,0.00,WUHU21623XXSP,2013-01-13 21:54:00,
2013-01-13 15:59:00,24.1,14.6,30.24,North,0,0.0,0.0,67,0.00,,,0.00,WUHU21623XXSP,2013-01-13 21:59:00,
2013-01-13 16:04:00,24.1,14.3,30.24,North,0,0.0,0.0,66,0.00,,,0.00,WUHU21623XXSP,2013-01-13 22:04:00,
2013-01-13 16:09:00,23.7,13.9,30.24,North,0,0.0,0.0,66,0.00,,,0.00,WUHU21623XXSP,2013-01-13 22:09:00,
2013-01-13 16:14:00,23.4,13.6,30.24,North,0,0.0,0.0,66,0.00,,,0.00,WUHU21623XXSP,2013-01-13 22:14:00,
2013-01-13 16:19:00,23.4,13.6,30.24,North,0,0.0,0.0,66,0.00,,,0.00,WUHU21623XXSP,2013-01-13 22:19:00,
2013-01-13 16:24:00,23.2,13.4,30.24,North,0,0.0,0.0,66,0.00,,,0.00,WUHU21623XXSP,2013-01-13 22:24:00,
2013-01-13 16:29:00,22.8,13.5,30.25,North,0,0.0,0.0,67,0.00,,,0.00,WUHU21623XXSP,2013-01-13 22:29:00,
2013-01-13 16:34:00,22.8,13.1,30.25,North,0,0.0,0.0,66,0.00,,,0.00,WUHU21623XXSP,2013-01-13 22:34:00,
2013-01-13 16:39:00,22.6,13.3,30.25,North,0,0.0,0.0,67,0.00,,,0.00,WUHU21623XXSP,2013-01-13 22:39:00,
2013-01-13 16:44:00,22.3,12.9,30.25,North,0,0.0,0.0,67,0.00,,,0.00,WUHU21623XXSP,2013-01-13 22:44:00,
2013-01-13 16:49:00,22.3,12.9,30.25,North,0,0.0,0.0,67,0.00,,,0.00,WUHU21623XXSP,2013-01-13 22:49:00,
2013-01-13 16:54:00,22.1,13.1,30.25,North,0,0.0,0.0,68,0.00,,,0.00,WUHU21623XXSP,2013-01-13 22:54:00,
2013-01-13 16:59:00,21.9,12.9,30.25,North,0,0.0,0.0,68,0.00,,,0.00,WUHU21623XXSP,2013-01-13 22:59:00,
2013-01-13 17:04:00,21.6,12.6,30.25,North,0,0.0,0.0,68,0.00,,,0.00,WUHU21623XXSP,2013-01-13 23:04:00,
2013-01-13 17:09:00,21.6,12.6,30.25,North,0,0.0,0.0,68,0.00,,,0.00,WUHU21623XXSP,2013-01-13 23:09:00,
2013-01-13 17:14:00,21.4,12.4,30.26,North,0,0.0,0.0,68,0.00,,,0.00,WUHU21623XXSP,2013-01-13 23:14:00,
2013-01-13 17:19:00,21.0,12.1,30.26,North,0,0.0,0.0,68,0.00,,,0.00,WUHU21623XXSP,2013-01-13 23:19:00,
2013-01-13 17:24:00,21.0,12.1,30.26,North,0,0.0,0.0,68,0.00,,,0.00,WUHU21623XXSP,2013-01-13 23:24:00,
2013-01-13 17:29:00,20.8,11.9,30.26,North,0,0.0,0.0,68,0.00,,,0.00,WUHU21623XXSP,2013-01-13 23:29:00,
2013-01-13 17:34:00,20.5,11.5,30.27,North,0,0.0,0.0,68,0.00,,,0.00,WUHU21623XXSP,2013-01-13 23:34:00,
2013-01-13 17:39:00,20.5,11.9,30.26,North,0,0.0,0.0,69,0.00,,,0.00,WUHU21623XXSP,2013-01-13 23:39:00,
2013-01-13 17:44:00,20.3,11.7,30.26,North,0,0.0,0.0,69,0.00,,,0.00,WUHU21623XXSP,2013-01-13 23:44:00,
2013-01-13 17:49:00,20.1,11.5,30.26,North,0,0.0,0.0,69,0.00,,,0.00,WUHU21623XXSP,2013-01-13 23:49:00,
2013-01-13 17:54:00,19.9,11.3,30.26,North,0,0.0,0.0,69,0.00,,,0.00,WUHU21623XXSP,2013-01-13 23:54:00,
2013-01-13 17:59:00,19.8,11.1,30.27,North,0,0.0,0.0,69,0.00,,,0.00,WUHU21623XXSP,2013-01-13 23:59:00,
2013-01-13 18:04:00,19.6,11.0,30.27,North,0,0.0,0.0,69,0.00,,,0.00,WUHU21623XXSP,2013-01-14 00:04:00,
2013-01-13 18:09:00,19.6,11.0,30.27,North,0,0.0,0.0,69,0.00,,,0.00,WUHU21623XXSP,2013-01-14 00:09:00,
2013-01-13 18:14:00,19.4,11.0,30.28,North,0,0.0,0.0,70,0.00,,,0.00,WUHU21623XXSP,2013-01-14 00:14:00,
2013-01-13 18:19:00,19.2,11.0,30.28,North,0,0.0,0.0,70,0.00,,,0.00,WUHU21623XXSP,2013-01-14 00:19:00,
2013-01-13 18:24:00,19.2,11.0,30.28,North,0,0.0,0.0,70,0.00,,,0.00,WUHU21623XXSP,2013-01-14 00:24:00,
2013-01-13 18:29:00,19.0,11.0,30.29,North,0,0.0,0.0,70,0.00,,,0.00,WUHU21623XXSP,2013-01-14 00:29:00,
2013-01-13 18:34:00,19.0,10.8,30.29,North,0,0.0,0.0,70,0.00,,,0.00,WUHU21623XXSP,2013-01-14 00:34:00,
2013-01-13 18:39:00,19.0,10.8,30.29,North,0,0.0,0.0,70,0.00,,,0.00,WUHU21623XXSP,2013-01-14 00:39:00,
2013-01-13 18:44:00,18.9,10.9,30.29,North,0,0.0,0.0,71,0.00,,,0.00,WUHU21623XXSP,2013-01-14 00:44:00,
2013-01-13 18:49:00,18.7,10.8,30.29,North,0,0.0,0.0,71,0.00,,,0.00,WUHU21623XXSP,2013-01-14 00:49:00,
2013-01-13 18:54:00,18.3,10.6,30.29,North,0,0.0,0.0,71,0.00,,,0.00,WUHU21623XXSP,2013-01-14 00:54:00,
2013-01-13 18:59:00,18.3,10.4,30.29,North,0,0.0,0.0,71,0.00,,,0.00,WUHU21623XXSP,2013-01-14 00:59:00,
2013-01-13 19:04:00,18.1,10.3,30.29,North,0,0.0,0.0,71,0.00,,,0.00,WUHU21623XXSP,2013-01-14 01:04:00,
2013-01-13 19:09:00,18.1,10.6,30.29,North,0,0.0,0.0,72,0.00,,,0.00,WUHU21623XXSP,2013-01-14 01:09:00,
2013-01-13 19:14:00,18.1,10.6,30.29,North,0,0.0,0.0,72,0.00,,,0.00,WUHU21623XXSP,2013-01-14 01:14:00,
2013-01-13 19:19:00,18.0,10.4,30.29,North,0,0.0,0.0,72,0.00,,,0.00,WUHU21623XXSP,2013-01-14 01:19:00,
2013-01-13 19:24:00,17.8,10.2,30.29,North,0,0.0,0.0,72,0.00,,,0.00,WUHU21623XXSP,2013-01-14 01:24:00,
2013-01-13 19:29:00,17.8,10.2,30.29,North,0,0.0,0.0,72,0.00,,,0.00,WUHU21623XXSP,2013-01-14 01:29:00,
2013-01-13 19:34:00,17.8,10.2,30.29,North,0,0.0,0.0,72,0.00,,,0.00,WUHU21623XXSP,2013-01-14 01:34:00,
2013-01-13 19:39:00,17.8,10.2,30.29,North,0,0.0,0.0,72,0.00,,,0.00,WUHU21623XXSP,2013-01-14 01:39:00,
2013-01-13 19:44:00,17.4,10.2,30.30,North,0,0.0,0.0,73,0.00,,,0.00,WUHU21623XXSP,2013-01-14 01:44:00,
2013-01-13 19:49:00,17.4,10.2,30.30,North,0,0.0,0.0,73,0.00,,,0.00,WUHU21623XXSP,2013-01-14 01:49:00,
2013-01-13 19:54:00,17.4,10.2,30.30,North,0,0.0,0.0,73,0.00,,,0.00,WUHU21623XXSP,2013-01-14 01:54:00,
2013-01-13 19:59:00,17.4,10.2,30.30,North,0,0.0,0.0,73,0.00,,,0.00,WUHU21623XXSP,2013-01-14 01:59:00,
2013-01-13 20:04:00,17.4,10.2,30.30,North,0,0.0,0.0,73,0.00,,,0.00,WUHU21623XXSP,2013-01-14 02:04:00,
2013-01-13 20:09:00,17.4,10.5,30.31,North,0,0.0,0.0,74,0.00,,,0.00,WUHU21623XXSP,2013-01-14 02:09:00,
2013-01-13 20:14:00,17.4,10.5,30.30,North,0,0.0,0.0,74,0.00,,,0.00,WUHU21623XXSP,2013-01-14 02:14:00,
2013-01-13 20:19:00,17.8,10.8,30.31,North,0,0.0,0.0,74,0.00,,,0.00,WUHU21623XXSP,2013-01-14 02:19:00,
2013-01-13 20:24:00,17.8,10.8,30.30,North,0,0.0,0.0,74,0.00,,,0.00,WUHU21623XXSP,2013-01-14 02:24:00,
2013-01-13 20:29:00,17.8,11.1,30.30,North,0,0.0,0.0,75,0.00,,,0.00,WUHU21623XXSP,2013-01-14 02:29:00,
2013-01-13 20:34:00,17.4,10.8,30.30,North,0,0.0,0.0,75,0.00,,,0.00,WUHU21623XXSP,2013-01-14 02:34:00,
2013-01-13 20:39:00,17.2,10.3,30.29,North,0,0.0,0.0,74,0.00,,,0.00,WUHU21623XXSP,2013-01-14 02:39:00,
2013-01-13 20:44:00,16.7,10.1,30.29,North,0,0.0,0.0,75,0.00,,,0.00,WUHU21623XXSP,2013-01-14 02:44:00,
2013-01-13 20:49:00,16.5,9.9,30.29,North,0,0.0,0.0,75,0.00,,,0.00,WUHU21623XXSP,2013-01-14 02:49:00,
2013-01-13 20:55:00,16.3,9.7,30.29,North,0,0.0,0.0,75,0.00,,,0.00,WUHU21623XXSP,2013-01-14 02:55:00,
2013-01-13 21:00:00,16.2,9.6,30.30,North,0,0.0,0.0,75,0.00,,,0.00,WUHU21623XXSP,2013-01-14 03:00:00,
2013-01-13 21:05:00,16.0,9.4,30.30,North,0,0.0,0.0,75,0.00,,,0.00,WUHU21623XXSP,2013-01-14 03:05:00,
2013-01-13 21:10:00,15.8,9.5,30.30,North,0,0.0,0.0,76,0.00,,,0.00,WUHU21623XXSP,2013-01-14 03:10:00,
2013-01-13 21:15:00,15.6,9.4,30.29,North,0,0.0,0.0,76,0.00,,,0.00,WUHU21623XXSP,2013-01-14 03:15:00,
2013-01-13 21:20:00,15.6,9.4,30.30,North,0,0.0,0.0,76,0.00,,,0.00,WUHU21623XXSP,2013-01-14 03:20:00,
2013-01-13 21:25:00,15.4,9.2,30.30,North,0,0.0,0.0,76,0.00,,,0.00,WUHU21623XXSP,2013-01-14 03:25:00,
2013-01-13 21:30:00,15.4,9.2,30.30,North,0,0.0,0.0,76,0.00,,,0.00,WUHU21623XXSP,2013-01-14 03:30:00,
2013-01-13 21:35:00,15.3,9.0,30.30,North,0,0.0,0.0,76,0.00,,,0.00,WUHU21623XXSP,2013-01-14 03:35:00,
2013-01-13 21:40:00,15.1,9.0,30.29,North,0,0.0,0.0,77,0.00,,,0.00,WUHU21623XXSP,2013-01-14 03:40:00,
2013-01-13 21:45:00,14.9,9.0,30.29,North,0,0.0,0.0,77,0.00,,,0.00,WUHU21623XXSP,2013-01-14 03:45:00,
2013-01-13 21:50:00,14.9,9.1,30.28,North,0,0.0,0.0,77,0.00,,,0.00,WUHU21623XXSP,2013-01-14 03:50:00,
2013-01-13 21:55:00,15.1,9.4,30.29,North,0,0.0,0.0,78,0.00,,,0.00,WUHU21623XXSP,2013-01-14 03:55:00,
2013-01-13 22:00:00,15.1,9.4,30.29,North,0,0.0,0.0,78,0.00,,,0.00,WUHU21623XXSP,2013-01-14 04:00:00,
2013-01-13 22:05:00,15.3,9.6,30.30,North,0,0.0,0.0,78,0.00,,,0.00,WUHU21623XXSP,2013-01-14 04:05:00,
2013-01-13 22:10:00,15.4,9.8,30.30,North,0,0.0,0.0,78,0.00,,,0.00,WUHU21623XXSP,2013-01-14 04:10:00,
2013-01-13 22:15:00,15.4,9.8,30.31,North,0,0.0,0.0,78,0.00,,,0.00,WUHU21623XXSP,2013-01-14 04:15:00,
2013-01-13 22:20:00,15.4,9.8,30.31,North,0,0.0,0.0,78,0.00,,,0.00,WUHU21623XXSP,2013-01-14 04:20:00,
2013-01-13 22:25:00,15.4,9.8,30.31,North,0,0.0,0.0,78,0.00,,,0.00,WUHU21623XXSP,2013-01-14 04:25:00,
2013-01-13 22:30:00,15.4,9.8,30.32,North,0,0.0,0.0,78,0.00,,,0.00,WUHU21623XXSP,2013-01-14 04:30:00,
2013-01-13 22:35:00,15.4,9.8,30.32,North,0,0.0,0.0,78,0.00,,,0.00,WUHU21623XXSP,2013-01-14 04:35:00,
2013-01-13 22:40:00,15.4,9.8,30.32,North,0,0.0,0.0,78,0.00,,,0.00,WUHU21623XXSP,2013-01-14 04:40:00,
2013-01-13 22:45:00,15.3,9.6,30.33,North,0,0.0,0.0,78,0.00,,,0.00,WUHU21623XXSP,2013-01-14 04:45:00,
2013-01-13 22:50:00,15.3,9.6,30.33,North,0,0.0,0.0,78,0.00,,,0.00,WUHU21623XXSP,2013-01-14 04:50:00,
2013-01-13 22:55:00,15.1,9.4,30.33,North,0,0.0,0.0,78,0.00,,,0.00,WUHU21623XXSP,2013-01-14 04:55:00,
2013-01-13 23:00:00,14.9,9.3,30.33,North,0,0.0,0.0,78,0.00,,,0.00,WUHU21623XXSP,2013-01-14 05:00:00,
2013-01-13 23:05:00,14.7,9.1,30.34,North,0,0.0,0.0,78,0.00,,,0.00,WUHU21623XXSP,2013-01-14 05:05:00,
2013-01-13 23:10:00,14.7,9.1,30.35,North,0,0.0,0.0,78,0.00,,,0.00,WUHU21623XXSP,2013-01-14 05:10:00,
2013-01-13 23:13:00,14.5,8.9,30.35,North,0,0.0,0.0,78,0.00,,,0.00,WUHU21623XXSP,2013-01-14 05:13:00,
2013-01-13 23:18:00,14.5,8.9,30.35,North,0,0.0,0.0,78,0.00,,,0.00,WUHU21623XXSP,2013-01-14 05:18:00,
2013-01-13 23:23:00,14.4,9.0,30.35,North,0,0.0,0.0,79,0.00,,,0.00,WUHU21623XXSP,2013-01-14 05:23:00,
2013-01-13 23:28:00,14.4,9.0,30.36,North,0,0.0,0.0,79,0.00,,,0.00,WUHU21623XXSP,2013-01-14 05:28:00,
2013-01-13 23:33:00,14.2,8.8,30.36,North,0,0.0,0.0,79,0.00,,,0.00,WUHU21623XXSP,2013-01-14 05:33:00,
2013-01-13 23:38:00,14.2,8.8,30.36,North,0,0.0,0.0,79,0.00,,,0.00,WUHU21623XXSP,2013-01-14 05:38:00,
2013-01-13 23:43:00,14.2,8.8,30.36,North,0,0.0,0.0,79,0.00,,,0.00,WUHU21623XXSP,2013-01-14 05:43:00,
2013-01-13 23:48:00,14.2,8.8,30.36,North,0,0.0,0.0,79,0.00,,,0.00,WUHU21623XXSP,2013-01-14 05:48:00,
2013-01-13 23:53:00,14.2,8.8,30.37,North,0,0.0,0.0,79,0.00,,,0.00,WUHU21623XXSP,2013-01-14 05:53:00,
2013-01-13 23:58:00,14.2,8.8,30.38,North,0,0.0,0.0,79,0.00,,,0.00,WUHU21623XXSP,2013-01-14 05:58:00,